createdAt,value
2022-09-21T11:21:56.276Z,60.05
2022-09-21T11:24:46.864Z,59.45
2022-09-21T11:27:36.360Z,59.64
2022-09-21T11:30:09.694Z,59.95
2022-09-21T11:33:11.102Z,60.04
2022-09-21T11:35:47.616Z,59.42
2022-09-21T11:38:37.620Z,59.53
2022-09-21T11:41:36.103Z,59.61
2022-09-21T11:44:17.591Z,59.52
2022-09-21T11:47:10.404Z,59.38
2022-09-21T11:50:29.848Z,59.39
2022-09-21T11:53:34.735Z,59.60
2022-09-21T11:56:33.626Z,59.20
2022-09-21T11:59:42.660Z,58.84
2022-09-21T12:02:44.910Z,59.26
2022-09-21T12:05:29.796Z,60.09
2022-09-21T12:08:07.032Z,59.99
2022-09-21T12:10:42.830Z,58.48
2022-09-21T12:13:27.907Z,58.54
2022-09-21T12:16:22.039Z,57.93
2022-09-21T12:19:19.488Z,56.86
2022-09-21T12:21:52.939Z,56.06
2022-09-21T12:24:32.117Z,55.98
2022-09-21T12:27:11.835Z,56.02
2022-09-21T12:29:48.141Z,56.38
2022-09-21T12:32:54.116Z,56.00
2022-09-21T12:35:41.151Z,55.69
2022-09-21T12:38:09.606Z,56.17
2022-09-21T12:40:50.094Z,56.40
2022-09-21T12:43:43.513Z,56.21
2022-09-21T12:46:24.217Z,56.44
2022-09-21T12:48:53.330Z,56.61
2022-09-21T12:51:37.244Z,56.12
2022-09-21T12:54:43.327Z,55.20
2022-09-21T12:57:53.556Z,54.13
2022-09-21T13:00:22.421Z,52.76
2022-09-21T13:03:12.721Z,51.76
2022-09-21T13:05:51.209Z,51.44
2022-09-21T13:08:28.016Z,51.29
2022-09-21T13:11:01.438Z,51.88
2022-09-21T13:13:35.727Z,51.67
2022-09-21T13:16:06.665Z,50.99
2022-09-21T13:18:38.865Z,50.10
2022-09-21T13:21:26.534Z,49.63
2022-09-21T13:24:01.574Z,48.65
2022-09-21T13:26:50.608Z,47.73
2022-09-21T13:29:22.577Z,47.16
2022-09-21T13:32:04.522Z,46.61
2022-09-21T13:34:41.424Z,44.89
2022-09-21T13:37:15.854Z,45.14
2022-09-21T13:40:02.310Z,44.52
2022-09-21T13:42:30.991Z,44.51
2022-09-21T13:45:15.720Z,44.09
2022-09-21T13:47:50.287Z,44.10
2022-09-21T13:50:27.356Z,43.78
2022-09-21T13:52:59.916Z,43.79
2022-09-21T13:55:32.564Z,43.91
2022-09-21T13:58:05.032Z,43.37
2022-09-21T14:00:41.370Z,43.12
2022-09-21T14:03:28.889Z,42.84
2022-09-21T14:06:09.250Z,41.89
2022-09-21T14:08:49.377Z,41.21
2022-09-21T14:11:28.635Z,40.65
2022-09-21T14:14:12.187Z,40.01
2022-09-21T14:16:44.744Z,39.33
2022-09-21T14:19:19.333Z,38.45
2022-09-21T14:22:09.122Z,38.15
2022-09-21T14:24:44.895Z,39.47
2022-09-21T14:27:46.354Z,39.71
2022-09-21T14:30:20.741Z,39.94
2022-09-21T14:33:02.370Z,39.73
2022-09-21T14:35:34.682Z,39.33
2022-09-21T14:38:11.007Z,38.64
2022-09-21T14:40:47.307Z,38.91
2022-09-21T14:43:22.697Z,39.11
2022-09-21T14:46:04.105Z,39.43
2022-09-21T14:48:50.489Z,39.21
2022-09-21T14:51:27.216Z,39.87
2022-09-21T14:54:17.936Z,40.06
2022-09-21T14:57:00.474Z,40.70
2022-09-21T14:59:50.025Z,40.48
2022-09-21T15:02:44.771Z,40.51
2022-09-21T15:05:35.211Z,40.76
2022-09-21T15:09:00.523Z,41.00
2022-09-21T15:11:34.382Z,41.86
2022-09-21T15:14:35.222Z,42.06
2022-09-21T15:17:26.295Z,42.46
2022-09-21T15:20:00.903Z,43.05
2022-09-21T15:22:29.379Z,43.38
2022-09-21T15:25:02.930Z,43.77
2022-09-21T15:27:35.976Z,44.35
2022-09-21T15:30:06.543Z,44.87
2022-09-21T15:32:39.634Z,45.14
2022-09-21T15:35:22.940Z,45.68
2022-09-21T15:37:52.494Z,45.96
2022-09-21T15:40:27.563Z,46.41
2022-09-21T15:43:07.005Z,46.91
2022-09-21T15:45:52.120Z,47.16
2022-09-21T15:48:33.485Z,47.62
2022-09-21T15:51:39.793Z,48.00
2022-09-21T15:54:27.194Z,48.49
2022-09-21T15:56:55.798Z,48.84
2022-09-21T15:59:24.480Z,49.16
2022-09-21T16:01:56.924Z,49.47
2022-09-21T16:04:27.431Z,49.88
2022-09-21T16:07:08.018Z,50.11
2022-09-21T16:09:42.721Z,50.45
2022-09-21T16:12:26.686Z,50.71
2022-09-21T16:15:17.326Z,50.97
2022-09-21T16:18:03.342Z,51.33
2022-09-21T16:20:48.516Z,51.50
2022-09-21T16:23:26.940Z,51.87
2022-09-21T16:26:01.543Z,52.08
2022-09-21T16:28:39.493Z,52.41
2022-09-21T16:31:22.700Z,52.59
2022-09-21T16:33:54.646Z,52.80
2022-09-21T16:36:25.787Z,53.00
2022-09-21T16:38:54.429Z,53.24
2022-09-21T16:41:25.545Z,53.50
2022-09-21T16:43:57.528Z,53.64
2022-09-21T16:46:27.602Z,53.79
2022-09-21T16:48:56.178Z,54.04
2022-09-21T16:51:27.469Z,54.29
2022-09-21T16:53:56.681Z,54.48
2022-09-21T16:56:25.662Z,54.62
2022-09-21T16:58:53.998Z,54.73
2022-09-21T17:01:22.501Z,54.95
2022-09-21T17:03:51.239Z,55.08
2022-09-21T17:06:21.825Z,55.21
2022-09-21T17:08:50.445Z,55.34
2022-09-21T17:11:20.275Z,55.52
2022-09-21T17:13:49.910Z,55.65
2022-09-21T17:16:20.321Z,55.79
2022-09-21T17:18:49.713Z,55.94
2022-09-21T17:21:18.025Z,56.08
2022-09-21T17:23:46.539Z,56.32
2022-09-21T17:26:18.039Z,56.33
2022-09-21T17:28:46.871Z,56.48
2022-09-21T17:31:16.814Z,56.58
2022-09-21T17:33:47.982Z,56.78
2022-09-21T17:36:18.339Z,56.84
2022-09-21T17:38:46.836Z,57.04
2022-09-21T17:41:20.622Z,57.21
2022-09-21T17:44:08.256Z,57.32
2022-09-21T17:46:59.131Z,57.54
2022-09-21T17:49:27.748Z,57.59
2022-09-21T17:52:15.650Z,57.66
2022-09-21T17:54:44.541Z,57.87
2022-09-21T17:57:45.998Z,57.85
2022-09-21T18:00:20.945Z,58.14
2022-09-21T18:02:50.838Z,58.19
2022-09-21T18:05:26.556Z,58.42
2022-09-21T18:07:56.000Z,58.40
2022-09-21T18:10:26.544Z,58.39
2022-09-21T18:13:12.210Z,58.42
2022-09-21T18:15:57.533Z,58.64
2022-09-21T18:18:31.659Z,58.57
2022-09-21T18:21:04.377Z,58.85
2022-09-21T18:23:41.853Z,58.99
2022-09-21T18:26:17.008Z,58.90
2022-09-21T18:28:58.354Z,58.95
2022-09-21T18:31:42.406Z,59.04
2022-09-21T18:34:35.802Z,59.24
2022-09-21T18:37:26.452Z,59.20
2022-09-21T18:40:01.136Z,59.38
2022-09-21T18:42:29.607Z,59.42
2022-09-21T18:45:05.859Z,59.47
2022-09-21T18:47:57.596Z,59.63
2022-09-21T18:51:00.486Z,59.78
2022-09-21T18:53:38.999Z,59.95
2022-09-21T18:56:08.789Z,59.86
2022-09-21T18:58:38.815Z,59.89
2022-09-21T19:01:07.729Z,60.17
2022-09-21T19:03:37.928Z,60.17
2022-09-21T19:06:29.818Z,60.24
2022-09-21T19:09:38.402Z,60.47
2022-09-21T19:12:29.475Z,60.46
2022-09-21T19:15:48.711Z,60.70
2022-09-21T19:18:45.415Z,60.83
2022-09-21T19:21:42.087Z,61.01
2022-09-21T19:24:25.830Z,60.95
2022-09-21T19:27:18.446Z,61.21
2022-09-21T19:29:52.607Z,61.08
2022-09-21T19:32:45.206Z,61.32
2022-09-21T19:35:19.519Z,61.47
2022-09-21T19:37:49.663Z,61.65
2022-09-21T19:40:21.289Z,61.67
2022-09-21T19:43:19.110Z,61.56
2022-09-21T19:46:06.387Z,61.62
2022-09-21T19:48:43.625Z,61.68
2022-09-21T19:51:30.893Z,61.88
2022-09-21T19:54:20.252Z,61.82
2022-09-21T19:57:29.601Z,61.92
2022-09-21T19:59:58.636Z,62.09
2022-09-21T20:02:40.738Z,62.07
2022-09-21T20:05:30.883Z,62.19
2022-09-21T20:08:11.097Z,62.20
2022-09-21T20:10:51.832Z,62.33
2022-09-21T20:13:48.140Z,62.21
2022-09-21T20:16:46.273Z,62.35
2022-09-21T20:19:47.309Z,62.37
2022-09-21T20:22:18.774Z,62.62
2022-09-21T20:24:54.972Z,62.88
2022-09-21T20:27:34.948Z,62.81
2022-09-21T20:30:07.450Z,63.00
2022-09-21T20:32:38.077Z,63.06
2022-09-21T20:35:25.147Z,63.14
2022-09-21T20:37:56.483Z,63.13
2022-09-21T20:40:29.070Z,63.32
2022-09-21T20:42:59.124Z,63.39
2022-09-21T20:45:27.936Z,63.37
2022-09-21T20:48:13.350Z,63.48
2022-09-21T20:50:47.830Z,63.43
2022-09-21T20:53:17.588Z,63.61
2022-09-21T20:55:53.749Z,63.67
2022-09-21T20:58:23.151Z,63.69
2022-09-21T21:00:55.243Z,63.69
2022-09-21T21:03:26.908Z,63.75
2022-09-21T21:06:07.758Z,63.84
2022-09-21T21:08:36.529Z,63.88
2022-09-21T21:11:05.624Z,63.94
2022-09-21T21:13:34.115Z,64.02
2022-09-21T21:16:09.481Z,63.96
2022-09-21T21:18:41.208Z,63.95
2022-09-21T21:21:10.681Z,64.08
2022-09-21T21:23:57.521Z,64.13
2022-09-21T21:26:43.820Z,64.12
2022-09-21T21:29:14.656Z,64.32
2022-09-21T21:31:43.566Z,64.34
2022-09-21T21:34:11.975Z,64.29
2022-09-21T21:36:40.628Z,64.41
2022-09-21T21:39:10.953Z,64.40
2022-09-21T21:41:39.394Z,64.62
2022-09-21T21:44:07.833Z,64.60
2022-09-21T21:46:36.684Z,64.61
2022-09-21T21:49:05.675Z,64.61
2022-09-21T21:51:34.566Z,64.71
2022-09-21T21:54:03.181Z,64.86
2022-09-21T21:56:31.676Z,64.83
2022-09-21T21:58:59.884Z,64.80
2022-09-21T22:01:30.329Z,64.95
2022-09-21T22:04:01.555Z,65.06
2022-09-21T22:06:33.072Z,65.10
2022-09-21T22:09:03.230Z,65.10
2022-09-21T22:11:32.053Z,65.07
2022-09-21T22:14:02.153Z,65.15
2022-09-21T22:16:32.716Z,65.23
2022-09-21T22:19:04.768Z,65.22
2022-09-21T22:21:39.237Z,65.30
2022-09-21T22:24:13.599Z,65.33
2022-09-21T22:26:44.534Z,65.50
2022-09-21T22:29:14.290Z,65.53
2022-09-21T22:31:45.460Z,65.49
2022-09-21T22:34:15.021Z,65.65
2022-09-21T22:36:44.083Z,65.67
2022-09-21T22:39:13.066Z,65.70
2022-09-21T22:41:43.056Z,65.89
2022-09-21T22:44:11.617Z,65.77
2022-09-21T22:46:40.524Z,65.99
2022-09-21T22:49:09.089Z,66.00
2022-09-21T22:51:38.298Z,66.11
2022-09-21T22:54:07.371Z,66.22
2022-09-21T22:56:35.945Z,66.09
2022-09-21T22:59:05.359Z,66.21
2022-09-21T23:01:37.399Z,66.20
2022-09-21T23:04:09.324Z,66.22
2022-09-21T23:06:40.495Z,66.29
2022-09-21T23:09:13.745Z,66.30
2022-09-21T23:11:47.368Z,66.40
2022-09-21T23:14:16.904Z,66.47
2022-09-21T23:16:45.840Z,66.43
2022-09-21T23:19:17.995Z,66.55
2022-09-21T23:21:49.794Z,66.64
2022-09-21T23:24:19.873Z,66.79
2022-09-21T23:26:51.665Z,66.74
2022-09-21T23:29:20.404Z,66.72
2022-09-21T23:31:48.700Z,66.76
2022-09-21T23:34:17.446Z,66.88
2022-09-21T23:36:46.229Z,66.98
2022-09-21T23:39:15.741Z,66.90
2022-09-21T23:41:44.867Z,66.99
2022-09-21T23:44:13.618Z,66.87
2022-09-21T23:46:42.870Z,67.03
2022-09-21T23:49:11.809Z,67.19
2022-09-21T23:51:41.006Z,67.18
2022-09-21T23:54:09.355Z,67.19
2022-09-21T23:56:38.282Z,67.16
2022-09-21T23:59:06.894Z,67.14
